sensor_id;sensor_type;location;lat;lon;timestamp;P1;durP1;ratioP1;P2;durP2;ratioP2
71914;SDS011;60387;49.994;14.660;2022-12-31T00:00:30;6.83;;;1.50;;
71914;SDS011;60387;49.994;14.660;2022-12-31T00:03:08;7.07;;;1.47;;
71914;SDS011;60387;49.994;14.660;2022-12-31T00:05:41;4.22;;;0.90;;
71914;SDS011;60387;49.994;14.660;2022-12-31T00:08:15;3.20;;;0.70;;
71914;SDS011;60387;49.994;14.660;2022-12-31T00:10:48;4.07;;;0.70;;
71914;SDS011;60387;49.994;14.660;2022-12-31T00:13:21;3.65;;;0.80;;
71914;SDS011;60387;49.994;14.660;2022-12-31T00:16:03;3.53;;;1.00;;
71914;SDS011;60387;49.994;14.660;2022-12-31T00:18:38;3.78;;;0.68;;
71914;SDS011;60387;49.994;14.660;2022-12-31T00:21:16;3.72;;;0.77;;
71914;SDS011;60387;49.994;14.660;2022-12-31T00:23:50;3.17;;;0.70;;
71914;SDS011;60387;49.994;14.660;2022-12-31T00:26:25;3.00;;;0.90;;
71914;SDS011;60387;49.994;14.660;2022-12-31T00:29:00;2.25;;;0.70;;
71914;SDS011;60387;49.994;14.660;2022-12-31T00:31:36;4.50;;;1.13;;
71914;SDS011;60387;49.994;14.660;2022-12-31T00:34:10;4.20;;;0.75;;
71914;SDS011;60387;49.994;14.660;2022-12-31T00:36:43;3.60;;;0.50;;
71914;SDS011;60387;49.994;14.660;2022-12-31T00:39:16;3.50;;;1.00;;
71914;SDS011;60387;49.994;14.660;2022-12-31T00:41:50;2.93;;;0.70;;
71914;SDS011;60387;49.994;14.660;2022-12-31T00:44:23;2.77;;;0.60;;
71914;SDS011;60387;49.994;14.660;2022-12-31T00:46:56;3.20;;;0.80;;
71914;SDS011;60387;49.994;14.660;2022-12-31T00:49:29;4.07;;;0.77;;
71914;SDS011;60387;49.994;14.660;2022-12-31T00:52:03;3.93;;;0.57;;
71914;SDS011;60387;49.994;14.660;2022-12-31T00:54:37;3.97;;;0.50;;
71914;SDS011;60387;49.994;14.660;2022-12-31T00:57:10;3.17;;;0.63;;
71914;SDS011;60387;49.994;14.660;2022-12-31T00:59:43;3.92;;;0.60;;
71914;SDS011;60387;49.994;14.660;2022-12-31T01:02:16;3.97;;;0.50;;
71914;SDS011;60387;49.994;14.660;2022-12-31T01:04:50;4.20;;;0.80;;
71914;SDS011;60387;49.994;14.660;2022-12-31T01:07:23;4.57;;;0.97;;
71914;SDS011;60387;49.994;14.660;2022-12-31T01:09:56;5.83;;;0.80;;
71914;SDS011;60387;49.994;14.660;2022-12-31T01:12:30;6.90;;;1.03;;
71914;SDS011;60387;49.994;14.660;2022-12-31T01:15:03;3.63;;;0.90;;
71914;SDS011;60387;49.994;14.660;2022-12-31T01:17:37;3.20;;;0.80;;
71914;SDS011;60387;49.994;14.660;2022-12-31T01:20:10;3.40;;;0.50;;
71914;SDS011;60387;49.994;14.660;2022-12-31T01:22:43;4.67;;;1.13;;
71914;SDS011;60387;49.994;14.660;2022-12-31T01:25:16;3.87;;;0.80;;
71914;SDS011;60387;49.994;14.660;2022-12-31T01:27:50;4.97;;;1.00;;
71914;SDS011;60387;49.994;14.660;2022-12-31T01:30:23;4.43;;;0.80;;
71914;SDS011;60387;49.994;14.660;2022-12-31T01:32:56;2.20;;;0.60;;
71914;SDS011;60387;49.994;14.660;2022-12-31T01:35:30;3.47;;;0.57;;
71914;SDS011;60387;49.994;14.660;2022-12-31T01:38:06;3.83;;;0.77;;
71914;SDS011;60387;49.994;14.660;2022-12-31T01:40:40;4.97;;;0.93;;
71914;SDS011;60387;49.994;14.660;2022-12-31T01:43:15;7.03;;;1.20;;
71914;SDS011;60387;49.994;14.660;2022-12-31T01:45:52;11.57;;;1.70;;
71914;SDS011;60387;49.994;14.660;2022-12-31T01:48:26;7.65;;;1.20;;
71914;SDS011;60387;49.994;14.660;2022-12-31T01:50:59;9.03;;;1.43;;
71914;SDS011;60387;49.994;14.660;2022-12-31T01:53:33;6.73;;;0.87;;
71914;SDS011;60387;49.994;14.660;2022-12-31T01:56:06;5.80;;;1.00;;
71914;SDS011;60387;49.994;14.660;2022-12-31T01:58:41;4.23;;;0.80;;
71914;SDS011;60387;49.994;14.660;2022-12-31T02:01:25;4.40;;;0.70;;
71914;SDS011;60387;49.994;14.660;2022-12-31T02:04:06;4.50;;;0.82;;
71914;SDS011;60387;49.994;14.660;2022-12-31T02:06:45;5.57;;;0.90;;
71914;SDS011;60387;49.994;14.660;2022-12-31T02:09:22;6.80;;;1.03;;
71914;SDS011;60387;49.994;14.660;2022-12-31T02:11:55;3.58;;;0.68;;
71914;SDS011;60387;49.994;14.660;2022-12-31T02:14:32;3.70;;;0.53;;
71914;SDS011;60387;49.994;14.660;2022-12-31T02:31:34;5.25;;;0.80;;
71914;SDS011;60387;49.994;14.660;2022-12-31T02:34:17;3.43;;;0.53;;
71914;SDS011;60387;49.994;14.660;2022-12-31T02:36:58;1.77;;;0.40;;
71914;SDS011;60387;49.994;14.660;2022-12-31T02:39:34;2.72;;;0.50;;
71914;SDS011;60387;49.994;14.660;2022-12-31T02:42:09;2.97;;;0.50;;
71914;SDS011;60387;49.994;14.660;2022-12-31T02:44:42;2.30;;;0.40;;
71914;SDS011;60387;49.994;14.660;2022-12-31T03:00:59;3.13;;;0.55;;
71914;SDS011;60387;49.994;14.660;2022-12-31T03:03:33;2.33;;;0.63;;
71914;SDS011;60387;49.994;14.660;2022-12-31T03:06:08;3.58;;;0.60;;
71914;SDS011;60387;49.994;14.660;2022-12-31T03:08:43;2.90;;;0.63;;
71914;SDS011;60387;49.994;14.660;2022-12-31T03:11:16;2.70;;;0.50;;
71914;SDS011;60387;49.994;14.660;2022-12-31T03:13:50;3.57;;;0.60;;
71914;SDS011;60387;49.994;14.660;2022-12-31T03:16:23;3.13;;;0.60;;
71914;SDS011;60387;49.994;14.660;2022-12-31T03:18:56;3.70;;;0.50;;
71914;SDS011;60387;49.994;14.660;2022-12-31T03:21:30;3.40;;;0.60;;
71914;SDS011;60387;49.994;14.660;2022-12-31T03:24:03;1.80;;;0.40;;
71914;SDS011;60387;49.994;14.660;2022-12-31T03:26:36;2.03;;;0.47;;
71914;SDS011;60387;49.994;14.660;2022-12-31T03:29:10;2.70;;;0.40;;
71914;SDS011;60387;49.994;14.660;2022-12-31T03:31:43;3.13;;;0.50;;
71914;SDS011;60387;49.994;14.660;2022-12-31T03:34:16;3.93;;;0.57;;
71914;SDS011;60387;49.994;14.660;2022-12-31T03:36:49;4.10;;;0.63;;
71914;SDS011;60387;49.994;14.660;2022-12-31T03:39:23;4.83;;;0.70;;
71914;SDS011;60387;49.994;14.660;2022-12-31T03:41:56;2.87;;;0.50;;
71914;SDS011;60387;49.994;14.660;2022-12-31T03:44:29;1.75;;;0.50;;
71914;SDS011;60387;49.994;14.660;2022-12-31T03:47:03;1.90;;;0.45;;
71914;SDS011;60387;49.994;14.660;2022-12-31T03:49:36;1.45;;;0.40;;
71914;SDS011;60387;49.994;14.660;2022-12-31T03:52:09;2.60;;;0.40;;
71914;SDS011;60387;49.994;14.660;2022-12-31T03:54:43;2.40;;;0.40;;
71914;SDS011;60387;49.994;14.660;2022-12-31T03:57:16;2.43;;;0.50;;
71914;SDS011;60387;49.994;14.660;2022-12-31T03:59:49;4.30;;;0.47;;
71914;SDS011;60387;49.994;14.660;2022-12-31T04:02:22;3.00;;;0.50;;
71914;SDS011;60387;49.994;14.660;2022-12-31T04:04:56;1.50;;;0.37;;
71914;SDS011;60387;49.994;14.660;2022-12-31T04:07:29;2.20;;;0.40;;
71914;SDS011;60387;49.994;14.660;2022-12-31T04:10:04;3.92;;;0.60;;
71914;SDS011;60387;49.994;14.660;2022-12-31T04:12:38;2.20;;;0.52;;
71914;SDS011;60387;49.994;14.660;2022-12-31T04:15:17;2.77;;;0.50;;
71914;SDS011;60387;49.994;14.660;2022-12-31T04:17:51;1.92;;;0.30;;
71914;SDS011;60387;49.994;14.660;2022-12-31T04:20:24;4.53;;;0.40;;
71914;SDS011;60387;49.994;14.660;2022-12-31T04:22:58;2.33;;;0.40;;
71914;SDS011;60387;49.994;14.660;2022-12-31T04:25:31;1.60;;;0.30;;
71914;SDS011;60387;49.994;14.660;2022-12-31T04:28:04;1.30;;;0.30;;
71914;SDS011;60387;49.994;14.660;2022-12-31T04:30:38;2.03;;;0.40;;
71914;SDS011;60387;49.994;14.660;2022-12-31T04:33:12;3.78;;;0.50;;
71914;SDS011;60387;49.994;14.660;2022-12-31T04:35:45;3.23;;;0.40;;
71914;SDS011;60387;49.994;14.660;2022-12-31T04:38:18;1.87;;;0.30;;
71914;SDS011;60387;49.994;14.660;2022-12-31T04:40:52;2.70;;;0.40;;
71914;SDS011;60387;49.994;14.660;2022-12-31T04:43:25;2.67;;;0.50;;
71914;SDS011;60387;49.994;14.660;2022-12-31T04:45:58;2.33;;;0.30;;
71914;SDS011;60387;49.994;14.660;2022-12-31T04:48:32;1.13;;;0.30;;
71914;SDS011;60387;49.994;14.660;2022-12-31T04:51:06;2.78;;;0.43;;
71914;SDS011;60387;49.994;14.660;2022-12-31T04:53:39;1.13;;;0.30;;
71914;SDS011;60387;49.994;14.660;2022-12-31T04:56:13;1.83;;;0.40;;
71914;SDS011;60387;49.994;14.660;2022-12-31T04:58:47;1.42;;;0.40;;
71914;SDS011;60387;49.994;14.660;2022-12-31T05:01:20;2.47;;;0.50;;
71914;SDS011;60387;49.994;14.660;2022-12-31T05:03:54;2.37;;;0.30;;
71914;SDS011;60387;49.994;14.660;2022-12-31T05:06:27;1.23;;;0.30;;
71914;SDS011;60387;49.994;14.660;2022-12-31T05:09:01;1.33;;;0.30;;
71914;SDS011;60387;49.994;14.660;2022-12-31T05:11:34;1.65;;;0.38;;
71914;SDS011;60387;49.994;14.660;2022-12-31T05:14:07;2.00;;;0.40;;
71914;SDS011;60387;49.994;14.660;2022-12-31T05:16:40;1.27;;;0.30;;
71914;SDS011;60387;49.994;14.660;2022-12-31T05:19:14;2.83;;;0.57;;
71914;SDS011;60387;49.994;14.660;2022-12-31T05:21:47;2.10;;;0.40;;
71914;SDS011;60387;49.994;14.660;2022-12-31T05:24:20;1.70;;;0.37;;
71914;SDS011;60387;49.994;14.660;2022-12-31T05:26:54;3.43;;;0.40;;
71914;SDS011;60387;49.994;14.660;2022-12-31T05:29:27;1.80;;;0.40;;
71914;SDS011;60387;49.994;14.660;2022-12-31T05:32:00;2.03;;;0.50;;
71914;SDS011;60387;49.994;14.660;2022-12-31T05:34:33;4.07;;;0.50;;
71914;SDS011;60387;49.994;14.660;2022-12-31T05:37:07;2.37;;;0.60;;
71914;SDS011;60387;49.994;14.660;2022-12-31T05:39:40;1.77;;;0.37;;
71914;SDS011;60387;49.994;14.660;2022-12-31T05:42:13;2.13;;;0.33;;
71914;SDS011;60387;49.994;14.660;2022-12-31T05:44:47;1.50;;;0.40;;
71914;SDS011;60387;49.994;14.660;2022-12-31T05:47:20;3.40;;;0.60;;
71914;SDS011;60387;49.994;14.660;2022-12-31T05:49:54;1.93;;;0.50;;
71914;SDS011;60387;49.994;14.660;2022-12-31T05:52:27;1.63;;;0.50;;
71914;SDS011;60387;49.994;14.660;2022-12-31T05:55:00;2.33;;;0.50;;
71914;SDS011;60387;49.994;14.660;2022-12-31T05:57:34;1.73;;;0.50;;
71914;SDS011;60387;49.994;14.660;2022-12-31T06:00:08;2.47;;;0.53;;
71914;SDS011;60387;49.994;14.660;2022-12-31T06:02:42;1.67;;;0.40;;
71914;SDS011;60387;49.994;14.660;2022-12-31T06:05:15;0.97;;;0.30;;
71914;SDS011;60387;49.994;14.660;2022-12-31T06:07:48;1.73;;;0.40;;
71914;SDS011;60387;49.994;14.660;2022-12-31T06:10:22;2.78;;;0.45;;
71914;SDS011;60387;49.994;14.660;2022-12-31T06:12:55;3.27;;;0.40;;
71914;SDS011;60387;49.994;14.660;2022-12-31T06:15:28;1.23;;;0.37;;
71914;SDS011;60387;49.994;14.660;2022-12-31T06:18:02;1.73;;;0.40;;
71914;SDS011;60387;49.994;14.660;2022-12-31T06:20:36;1.67;;;0.30;;
71914;SDS011;60387;49.994;14.660;2022-12-31T06:23:10;1.30;;;0.35;;
71914;SDS011;60387;49.994;14.660;2022-12-31T06:25:43;2.17;;;0.47;;
71914;SDS011;60387;49.994;14.660;2022-12-31T06:28:16;1.43;;;0.40;;
71914;SDS011;60387;49.994;14.660;2022-12-31T06:30:50;3.07;;;0.40;;
71914;SDS011;60387;49.994;14.660;2022-12-31T06:33:23;1.53;;;0.30;;
71914;SDS011;60387;49.994;14.660;2022-12-31T06:35:59;1.57;;;0.37;;
71914;SDS011;60387;49.994;14.660;2022-12-31T06:38:35;2.55;;;0.40;;
71914;SDS011;60387;49.994;14.660;2022-12-31T06:41:11;2.03;;;0.40;;
71914;SDS011;60387;49.994;14.660;2022-12-31T06:43:46;2.38;;;0.40;;
71914;SDS011;60387;49.994;14.660;2022-12-31T06:46:20;2.13;;;0.47;;
71914;SDS011;60387;49.994;14.660;2022-12-31T06:48:53;1.30;;;0.30;;
71914;SDS011;60387;49.994;14.660;2022-12-31T06:51:26;1.90;;;0.30;;
71914;SDS011;60387;49.994;14.660;2022-12-31T06:53:59;2.53;;;0.40;;
71914;SDS011;60387;49.994;14.660;2022-12-31T06:56:33;0.80;;;0.20;;
71914;SDS011;60387;49.994;14.660;2022-12-31T06:59:18;2.28;;;0.50;;
71914;SDS011;60387;49.994;14.660;2022-12-31T07:10:57;1.27;;;0.30;;
71914;SDS011;60387;49.994;14.660;2022-12-31T07:19:16;1.50;;;0.30;;
71914;SDS011;60387;49.994;14.660;2022-12-31T07:21:52;1.13;;;0.40;;
71914;SDS011;60387;49.994;14.660;2022-12-31T07:24:27;1.93;;;0.40;;
71914;SDS011;60387;49.994;14.660;2022-12-31T07:27:19;1.48;;;0.30;;
71914;SDS011;60387;49.994;14.660;2022-12-31T07:30:23;2.20;;;0.38;;
71914;SDS011;60387;49.994;14.660;2022-12-31T07:33:13;2.30;;;0.30;;
71914;SDS011;60387;49.994;14.660;2022-12-31T07:38:52;2.38;;;0.50;;
71914;SDS011;60387;49.994;14.660;2022-12-31T07:41:37;1.17;;;0.30;;
71914;SDS011;60387;49.994;14.660;2022-12-31T07:47:45;1.03;;;0.30;;
71914;SDS011;60387;49.994;14.660;2022-12-31T07:50:18;2.13;;;0.30;;
71914;SDS011;60387;49.994;14.660;2022-12-31T07:52:52;3.10;;;0.30;;
71914;SDS011;60387;49.994;14.660;2022-12-31T07:55:25;1.60;;;0.30;;
71914;SDS011;60387;49.994;14.660;2022-12-31T07:58:03;2.43;;;0.30;;
71914;SDS011;60387;49.994;14.660;2022-12-31T08:00:48;2.67;;;0.40;;
71914;SDS011;60387;49.994;14.660;2022-12-31T08:06:10;3.10;;;0.68;;
71914;SDS011;60387;49.994;14.660;2022-12-31T08:09:08;3.30;;;0.50;;
71914;SDS011;60387;49.994;14.660;2022-12-31T08:11:48;2.15;;;0.38;;
71914;SDS011;60387;49.994;14.660;2022-12-31T08:14:28;2.90;;;0.30;;
71914;SDS011;60387;49.994;14.660;2022-12-31T08:17:02;3.90;;;0.65;;
71914;SDS011;60387;49.994;14.660;2022-12-31T08:19:35;4.50;;;0.97;;
71914;SDS011;60387;49.994;14.660;2022-12-31T08:22:15;2.70;;;0.57;;
71914;SDS011;60387;49.994;14.660;2022-12-31T08:25:02;3.67;;;0.60;;
71914;SDS011;60387;49.994;14.660;2022-12-31T08:27:44;2.38;;;0.40;;
71914;SDS011;60387;49.994;14.660;2022-12-31T08:31:18;3.10;;;0.50;;
71914;SDS011;60387;49.994;14.660;2022-12-31T08:33:56;3.47;;;1.10;;
71914;SDS011;60387;49.994;14.660;2022-12-31T08:36:47;2.45;;;0.50;;
71914;SDS011;60387;49.994;14.660;2022-12-31T08:39:33;3.17;;;0.47;;
71914;SDS011;60387;49.994;14.660;2022-12-31T08:45:46;2.97;;;0.50;;
71914;SDS011;60387;49.994;14.660;2022-12-31T08:48:41;2.25;;;0.40;;
71914;SDS011;60387;49.994;14.660;2022-12-31T08:51:19;3.60;;;0.32;;
71914;SDS011;60387;49.994;14.660;2022-12-31T08:53:54;3.65;;;0.70;;
71914;SDS011;60387;49.994;14.660;2022-12-31T08:56:29;2.37;;;0.40;;
71914;SDS011;60387;49.994;14.660;2022-12-31T08:59:30;4.20;;;0.50;;
71914;SDS011;60387;49.994;14.660;2022-12-31T09:07:42;3.00;;;0.40;;
71914;SDS011;60387;49.994;14.660;2022-12-31T09:16:13;1.43;;;0.30;;
71914;SDS011;60387;49.994;14.660;2022-12-31T09:18:49;1.83;;;0.40;;
71914;SDS011;60387;49.994;14.660;2022-12-31T09:21:23;1.43;;;0.40;;
71914;SDS011;60387;49.994;14.660;2022-12-31T09:23:56;2.47;;;0.40;;
71914;SDS011;60387;49.994;14.660;2022-12-31T09:29:22;3.22;;;0.40;;
71914;SDS011;60387;49.994;14.660;2022-12-31T09:35:05;2.15;;;0.73;;
71914;SDS011;60387;49.994;14.660;2022-12-31T09:38:09;2.03;;;0.40;;
71914;SDS011;60387;49.994;14.660;2022-12-31T10:04:32;3.30;;;0.68;;
71914;SDS011;60387;49.994;14.660;2022-12-31T10:10:29;3.55;;;0.50;;
71914;SDS011;60387;49.994;14.660;2022-12-31T10:16:12;2.67;;;0.50;;
71914;SDS011;60387;49.994;14.660;2022-12-31T10:36:30;2.27;;;0.50;;
71914;SDS011;60387;49.994;14.660;2022-12-31T10:39:23;1.95;;;0.40;;
71914;SDS011;60387;49.994;14.660;2022-12-31T10:42:30;3.10;;;0.63;;
71914;SDS011;60387;49.994;14.660;2022-12-31T11:03:29;2.28;;;0.40;;
71914;SDS011;60387;49.994;14.660;2022-12-31T11:06:07;2.30;;;0.40;;
71914;SDS011;60387;49.994;14.660;2022-12-31T11:08:52;1.45;;;0.40;;
71914;SDS011;60387;49.994;14.660;2022-12-31T11:20:41;1.20;;;0.40;;
71914;SDS011;60387;49.994;14.660;2022-12-31T11:37:27;1.27;;;0.40;;
71914;SDS011;60387;49.994;14.660;2022-12-31T11:43:29;2.22;;;0.50;;
71914;SDS011;60387;49.994;14.660;2022-12-31T11:55:18;1.60;;;0.40;;
71914;SDS011;60387;49.994;14.660;2022-12-31T11:58:01;1.27;;;0.38;;
71914;SDS011;60387;49.994;14.660;2022-12-31T12:00:46;2.22;;;0.50;;
71914;SDS011;60387;49.994;14.660;2022-12-31T12:03:26;0.77;;;0.30;;
71914;SDS011;60387;49.994;14.660;2022-12-31T12:06:00;1.90;;;0.33;;
71914;SDS011;60387;49.994;14.660;2022-12-31T12:08:33;3.57;;;0.40;;
71914;SDS011;60387;49.994;14.660;2022-12-31T12:11:12;0.80;;;0.30;;
71914;SDS011;60387;49.994;14.660;2022-12-31T12:13:50;0.87;;;0.30;;
71914;SDS011;60387;49.994;14.660;2022-12-31T12:16:23;3.33;;;0.43;;
71914;SDS011;60387;49.994;14.660;2022-12-31T12:19:03;1.70;;;0.40;;
71914;SDS011;60387;49.994;14.660;2022-12-31T12:21:47;2.67;;;0.60;;
71914;SDS011;60387;49.994;14.660;2022-12-31T12:24:24;2.35;;;0.40;;
71914;SDS011;60387;49.994;14.660;2022-12-31T12:26:59;3.63;;;0.47;;
71914;SDS011;60387;49.994;14.660;2022-12-31T12:29:33;2.92;;;0.50;;
71914;SDS011;60387;49.994;14.660;2022-12-31T12:32:17;1.87;;;0.33;;
71914;SDS011;60387;49.994;14.660;2022-12-31T12:34:52;1.58;;;0.30;;
71914;SDS011;60387;49.994;14.660;2022-12-31T12:37:30;2.45;;;0.50;;
71914;SDS011;60387;49.994;14.660;2022-12-31T12:42:50;2.83;;;0.60;;
71914;SDS011;60387;49.994;14.660;2022-12-31T12:45:25;4.20;;;0.70;;
71914;SDS011;60387;49.994;14.660;2022-12-31T12:48:12;2.35;;;0.60;;
71914;SDS011;60387;49.994;14.660;2022-12-31T12:50:57;1.30;;;0.40;;
71914;SDS011;60387;49.994;14.660;2022-12-31T12:53:48;1.47;;;0.40;;
71914;SDS011;60387;49.994;14.660;2022-12-31T12:59:26;1.38;;;0.50;;
71914;SDS011;60387;49.994;14.660;2022-12-31T13:21:55;5.13;;;0.60;;
71914;SDS011;60387;49.994;14.660;2022-12-31T13:25:02;4.43;;;0.67;;
71914;SDS011;60387;49.994;14.660;2022-12-31T13:28:03;1.85;;;0.50;;
71914;SDS011;60387;49.994;14.660;2022-12-31T13:30:43;1.73;;;0.50;;
71914;SDS011;60387;49.994;14.660;2022-12-31T13:33:24;2.42;;;0.50;;
71914;SDS011;60387;49.994;14.660;2022-12-31T13:36:11;2.70;;;0.50;;
71914;SDS011;60387;49.994;14.660;2022-12-31T13:38:52;2.27;;;0.50;;
71914;SDS011;60387;49.994;14.660;2022-12-31T13:41:29;1.95;;;0.50;;
71914;SDS011;60387;49.994;14.660;2022-12-31T13:44:23;3.42;;;0.68;;
71914;SDS011;60387;49.994;14.660;2022-12-31T13:47:13;3.75;;;0.75;;
71914;SDS011;60387;49.994;14.660;2022-12-31T13:50:38;2.83;;;0.60;;
71914;SDS011;60387;49.994;14.660;2022-12-31T13:52:54;2.40;;;0.40;;
71914;SDS011;60387;49.994;14.660;2022-12-31T14:09:24;2.90;;;0.60;;
71914;SDS011;60387;49.994;14.660;2022-12-31T14:18:13;4.25;;;0.80;;
71914;SDS011;60387;49.994;14.660;2022-12-31T14:21:14;3.70;;;0.70;;
71914;SDS011;60387;49.994;14.660;2022-12-31T14:23:58;3.38;;;0.70;;
71914;SDS011;60387;49.994;14.660;2022-12-31T14:26:57;4.45;;;0.73;;
71914;SDS011;60387;49.994;14.660;2022-12-31T14:29:40;4.40;;;0.85;;
71914;SDS011;60387;49.994;14.660;2022-12-31T14:35:17;2.70;;;0.60;;
71914;SDS011;60387;49.994;14.660;2022-12-31T14:44:12;3.60;;;0.63;;
71914;SDS011;60387;49.994;14.660;2022-12-31T14:47:32;5.10;;;1.08;;
71914;SDS011;60387;49.994;14.660;2022-12-31T14:50:20;4.33;;;0.90;;
71914;SDS011;60387;49.994;14.660;2022-12-31T14:55:33;4.53;;;1.00;;
71914;SDS011;60387;49.994;14.660;2022-12-31T15:03:49;7.13;;;1.77;;
71914;SDS011;60387;49.994;14.660;2022-12-31T15:23:22;3.73;;;0.93;;
71914;SDS011;60387;49.994;14.660;2022-12-31T15:25:58;3.65;;;1.00;;
71914;SDS011;60387;49.994;14.660;2022-12-31T15:31:13;4.93;;;1.20;;
71914;SDS011;60387;49.994;14.660;2022-12-31T15:33:59;4.20;;;0.80;;
71914;SDS011;60387;49.994;14.660;2022-12-31T15:36:34;3.88;;;1.10;;
71914;SDS011;60387;49.994;14.660;2022-12-31T15:41:42;7.30;;;2.07;;
71914;SDS011;60387;49.994;14.660;2022-12-31T15:44:22;10.55;;;3.67;;
71914;SDS011;60387;49.994;14.660;2022-12-31T15:47:13;7.97;;;2.40;;
71914;SDS011;60387;49.994;14.660;2022-12-31T15:49:57;11.38;;;3.40;;
71914;SDS011;60387;49.994;14.660;2022-12-31T15:52:37;10.35;;;3.35;;
71914;SDS011;60387;49.994;14.660;2022-12-31T15:55:18;6.50;;;1.60;;
71914;SDS011;60387;49.994;14.660;2022-12-31T15:57:57;7.28;;;2.20;;
71914;SDS011;60387;49.994;14.660;2022-12-31T16:00:56;7.30;;;1.30;;
71914;SDS011;60387;49.994;14.660;2022-12-31T16:03:33;6.97;;;2.10;;
71914;SDS011;60387;49.994;14.660;2022-12-31T16:06:07;13.97;;;4.10;;
71914;SDS011;60387;49.994;14.660;2022-12-31T16:08:44;11.20;;;3.70;;
71914;SDS011;60387;49.994;14.660;2022-12-31T16:11:20;15.23;;;6.35;;
71914;SDS011;60387;49.994;14.660;2022-12-31T16:13:56;20.67;;;7.67;;
71914;SDS011;60387;49.994;14.660;2022-12-31T16:16:31;19.52;;;8.10;;
71914;SDS011;60387;49.994;14.660;2022-12-31T16:19:13;9.05;;;4.05;;
71914;SDS011;60387;49.994;14.660;2022-12-31T16:22:00;8.80;;;3.05;;
71914;SDS011;60387;49.994;14.660;2022-12-31T16:24:38;9.90;;;3.45;;
71914;SDS011;60387;49.994;14.660;2022-12-31T16:27:12;15.87;;;5.10;;
71914;SDS011;60387;49.994;14.660;2022-12-31T16:29:48;9.63;;;3.13;;
71914;SDS011;60387;49.994;14.660;2022-12-31T16:32:45;10.07;;;3.03;;
71914;SDS011;60387;49.994;14.660;2022-12-31T16:38:01;7.05;;;2.83;;
71914;SDS011;60387;49.994;14.660;2022-12-31T16:43:37;7.23;;;2.03;;
71914;SDS011;60387;49.994;14.660;2022-12-31T16:46:17;5.50;;;1.65;;
71914;SDS011;60387;49.994;14.660;2022-12-31T16:48:54;6.85;;;2.40;;
71914;SDS011;60387;49.994;14.660;2022-12-31T16:51:31;9.55;;;3.60;;
71914;SDS011;60387;49.994;14.660;2022-12-31T16:54:19;5.15;;;1.70;;
71914;SDS011;60387;49.994;14.660;2022-12-31T16:56:57;6.10;;;1.77;;
71914;SDS011;60387;49.994;14.660;2022-12-31T17:02:29;8.90;;;3.15;;
71914;SDS011;60387;49.994;14.660;2022-12-31T17:05:18;5.30;;;1.23;;
71914;SDS011;60387;49.994;14.660;2022-12-31T17:07:52;7.97;;;1.55;;
71914;SDS011;60387;49.994;14.660;2022-12-31T17:10:31;6.60;;;1.40;;
71914;SDS011;60387;49.994;14.660;2022-12-31T17:13:19;6.30;;;1.30;;
71914;SDS011;60387;49.994;14.660;2022-12-31T17:15:55;7.07;;;2.20;;
71914;SDS011;60387;49.994;14.660;2022-12-31T17:18:33;7.18;;;1.60;;
71914;SDS011;60387;49.994;14.660;2022-12-31T17:21:09;6.78;;;1.90;;
71914;SDS011;60387;49.994;14.660;2022-12-31T17:23:43;11.97;;;7.73;;
71914;SDS011;60387;49.994;14.660;2022-12-31T17:26:26;6.80;;;1.80;;
71914;SDS011;60387;49.994;14.660;2022-12-31T17:29:01;6.78;;;1.45;;
71914;SDS011;60387;49.994;14.660;2022-12-31T17:31:39;4.68;;;0.82;;
71914;SDS011;60387;49.994;14.660;2022-12-31T17:39:50;8.73;;;1.63;;
71914;SDS011;60387;49.994;14.660;2022-12-31T17:42:34;11.80;;;4.35;;
71914;SDS011;60387;49.994;14.660;2022-12-31T17:45:19;8.77;;;1.60;;
71914;SDS011;60387;49.994;14.660;2022-12-31T17:47:53;7.50;;;1.48;;
71914;SDS011;60387;49.994;14.660;2022-12-31T17:50:29;9.27;;;1.95;;
71914;SDS011;60387;49.994;14.660;2022-12-31T17:53:10;8.60;;;1.97;;
71914;SDS011;60387;49.994;14.660;2022-12-31T17:55:45;7.40;;;1.88;;
71914;SDS011;60387;49.994;14.660;2022-12-31T18:00:59;11.50;;;2.73;;
71914;SDS011;60387;49.994;14.660;2022-12-31T18:03:34;11.55;;;2.65;;
71914;SDS011;60387;49.994;14.660;2022-12-31T18:06:10;6.85;;;1.40;;
71914;SDS011;60387;49.994;14.660;2022-12-31T18:08:44;7.60;;;1.20;;
71914;SDS011;60387;49.994;14.660;2022-12-31T18:11:19;5.53;;;1.13;;
71914;SDS011;60387;49.994;14.660;2022-12-31T18:13:54;6.30;;;1.50;;
71914;SDS011;60387;49.994;14.660;2022-12-31T18:16:27;5.30;;;1.52;;
71914;SDS011;60387;49.994;14.660;2022-12-31T18:19:01;5.77;;;1.60;;
71914;SDS011;60387;49.994;14.660;2022-12-31T18:21:34;6.93;;;1.70;;
71914;SDS011;60387;49.994;14.660;2022-12-31T18:24:09;6.43;;;1.50;;
71914;SDS011;60387;49.994;14.660;2022-12-31T18:26:46;8.07;;;2.70;;
71914;SDS011;60387;49.994;14.660;2022-12-31T18:29:19;10.13;;;3.83;;
71914;SDS011;60387;49.994;14.660;2022-12-31T18:31:54;10.32;;;4.18;;
71914;SDS011;60387;49.994;14.660;2022-12-31T18:34:27;12.33;;;5.27;;
71914;SDS011;60387;49.994;14.660;2022-12-31T18:37:00;8.50;;;3.10;;
71914;SDS011;60387;49.994;14.660;2022-12-31T18:39:34;8.50;;;2.37;;
71914;SDS011;60387;49.994;14.660;2022-12-31T18:42:15;8.03;;;1.90;;
71914;SDS011;60387;49.994;14.660;2022-12-31T18:44:49;5.75;;;1.50;;
71914;SDS011;60387;49.994;14.660;2022-12-31T18:47:23;7.03;;;1.10;;
71914;SDS011;60387;49.994;14.660;2022-12-31T18:49:56;6.13;;;1.73;;
71914;SDS011;60387;49.994;14.660;2022-12-31T18:52:29;5.73;;;1.60;;
71914;SDS011;60387;49.994;14.660;2022-12-31T18:55:10;6.97;;;1.90;;
71914;SDS011;60387;49.994;14.660;2022-12-31T18:57:53;4.85;;;1.42;;
71914;SDS011;60387;49.994;14.660;2022-12-31T19:00:26;5.87;;;1.07;;
71914;SDS011;60387;49.994;14.660;2022-12-31T19:03:00;3.40;;;1.17;;
71914;SDS011;60387;49.994;14.660;2022-12-31T19:05:35;5.40;;;1.10;;
71914;SDS011;60387;49.994;14.660;2022-12-31T19:08:09;5.57;;;1.20;;
71914;SDS011;60387;49.994;14.660;2022-12-31T19:10:42;5.23;;;1.07;;
71914;SDS011;60387;49.994;14.660;2022-12-31T19:13:16;5.67;;;1.30;;
71914;SDS011;60387;49.994;14.660;2022-12-31T19:15:51;5.50;;;1.50;;
71914;SDS011;60387;49.994;14.660;2022-12-31T19:18:25;7.13;;;1.60;;
71914;SDS011;60387;49.994;14.660;2022-12-31T19:20:58;7.50;;;2.27;;
71914;SDS011;60387;49.994;14.660;2022-12-31T19:23:31;7.03;;;2.00;;
71914;SDS011;60387;49.994;14.660;2022-12-31T19:26:05;7.67;;;1.60;;
71914;SDS011;60387;49.994;14.660;2022-12-31T19:28:38;6.57;;;1.50;;
71914;SDS011;60387;49.994;14.660;2022-12-31T19:31:11;5.23;;;1.23;;
71914;SDS011;60387;49.994;14.660;2022-12-31T19:33:45;7.23;;;1.63;;
71914;SDS011;60387;49.994;14.660;2022-12-31T19:36:19;6.30;;;1.10;;
71914;SDS011;60387;49.994;14.660;2022-12-31T19:38:52;5.75;;;1.40;;
71914;SDS011;60387;49.994;14.660;2022-12-31T19:41:25;5.50;;;1.27;;
71914;SDS011;60387;49.994;14.660;2022-12-31T19:43:58;6.53;;;1.20;;
71914;SDS011;60387;49.994;14.660;2022-12-31T19:46:32;6.47;;;1.30;;
71914;SDS011;60387;49.994;14.660;2022-12-31T19:49:05;4.83;;;1.10;;
71914;SDS011;60387;49.994;14.660;2022-12-31T19:51:39;7.83;;;1.43;;
71914;SDS011;60387;49.994;14.660;2022-12-31T19:54:12;6.53;;;1.50;;
71914;SDS011;60387;49.994;14.660;2022-12-31T19:56:45;9.00;;;1.30;;
71914;SDS011;60387;49.994;14.660;2022-12-31T19:59:19;5.90;;;1.20;;
71914;SDS011;60387;49.994;14.660;2022-12-31T20:01:52;5.90;;;1.90;;
71914;SDS011;60387;49.994;14.660;2022-12-31T20:04:25;4.93;;;1.37;;
71914;SDS011;60387;49.994;14.660;2022-12-31T20:06:59;7.03;;;1.50;;
71914;SDS011;60387;49.994;14.660;2022-12-31T20:09:32;5.03;;;1.67;;